Time;durP1;ratioP1;P1;durP2;ratioP2;P2;SDS_P1;SDS_P2;PMS_P1;PMS_P2;Temp;Humidity;BMP_temperature;BMP_pressure;BME280_temperature;BME280_humidity;BME280_pressure;Samples;Min_cycle;Max_cycle;Signal;HPM_P1;HPM_P2
2021/07/26 00:01:03;;;;;;;15.50;11.88;;;19.00;88.20;;;;;;5032640;28;20042;-76
2021/07/26 00:03:29;;;;;;;14.52;11.27;;;19.00;88.10;;;;;;5013544;28;20073;-73
2021/07/26 00:05:56;;;;;;;15.00;12.20;;;19.00;88.00;;;;;;5025510;28;20057;-72
2021/07/26 00:08:22;;;;;;;13.63;11.32;;;18.90;88.00;;;;;;5008899;28;20100;-72
2021/07/26 00:10:47;;;;;;;13.88;11.45;;;18.90;88.00;;;;;;5026146;28;20103;-76
2021/07/26 00:13:13;;;;;;;15.38;12.38;;;18.90;88.10;;;;;;5015378;28;20030;-75
2021/07/26 00:15:40;;;;;;;14.30;11.20;;;18.80;88.00;;;;;;5030927;28;20567;-73
2021/07/26 00:18:06;;;;;;;12.93;11.07;;;18.80;88.00;;;;;;5022315;28;20026;-74
2021/07/26 00:20:31;;;;;;;15.05;12.13;;;18.80;88.00;;;;;;5003496;28;20570;-72
2021/07/26 00:22:57;;;;;;;13.65;11.32;;;18.80;88.00;;;;;;5009160;28;20047;-72
2021/07/26 00:25:22;;;;;;;14.52;11.27;;;18.80;87.90;;;;;;5010101;28;20095;-79
2021/07/26 00:27:48;;;;;;;14.85;11.93;;;18.80;87.90;;;;;;5011195;28;20049;-74
2021/07/26 00:30:14;;;;;;;15.45;11.75;;;18.80;87.90;;;;;;5015046;28;20045;-76
2021/07/26 00:32:40;;;;;;;17.00;11.98;;;18.70;87.90;;;;;;5013613;28;20496;-73
2021/07/26 00:35:06;;;;;;;14.30;11.77;;;18.70;87.80;;;;;;5015272;28;20400;-78
2021/07/26 00:37:31;;;;;;;16.58;11.75;;;18.70;87.90;;;;;;5014336;28;20041;-72
2021/07/26 00:39:59;;;;;;;14.05;10.88;;;18.70;88.00;;;;;;5022178;28;20034;-72
2021/07/26 00:42:25;;;;;;;14.50;11.65;;;18.60;88.00;;;;;;4994687;28;20405;-74
2021/07/26 00:44:50;;;;;;;15.82;11.38;;;18.60;87.80;;;;;;5007949;28;20057;-73
2021/07/26 00:47:16;;;;;;;13.13;11.35;;;18.60;87.80;;;;;;5009107;28;20034;-81
2021/07/26 00:49:42;;;;;;;16.77;11.70;;;18.60;87.90;;;;;;5007554;28;20156;-72
2021/07/26 00:52:08;;;;;;;13.95;11.18;;;18.60;87.90;;;;;;5004222;28;20114;-73
2021/07/26 00:54:39;;;;;;;14.05;11.20;;;18.60;87.90;;;;;;5015073;28;20592;-72
2021/07/26 00:57:06;;;;;;;12.40;10.07;;;18.60;87.80;;;;;;5004852;28;20525;-80
2021/07/26 00:59:32;;;;;;;14.10;11.57;;;18.50;87.60;;;;;;5018239;28;20036;-74
2021/07/26 01:01:58;;;;;;;16.25;11.90;;;18.40;87.60;;;;;;5010535;28;20596;-75
2021/07/26 01:04:24;;;;;;;13.05;10.77;;;18.40;87.70;;;;;;5015168;28;20494;-72
2021/07/26 01:06:50;;;;;;;16.88;11.45;;;18.40;87.90;;;;;;5009668;28;20037;-72
2021/07/26 01:09:16;;;;;;;12.55;10.38;;;18.30;87.90;;;;;;5005578;28;20052;-83
2021/07/26 01:11:43;;;;;;;14.50;11.43;;;18.30;87.90;;;;;;5008610;28;20034;-72
2021/07/26 01:14:10;;;;;;;12.52;10.48;;;18.30;87.80;;;;;;5008389;28;20034;-72
2021/07/26 01:16:35;;;;;;;14.48;11.07;;;18.20;87.90;;;;;;5004911;28;20034;-72
2021/07/26 01:19:01;;;;;;;13.57;11.90;;;18.20;88.00;;;;;;5007965;28;20037;-72
2021/07/26 01:21:31;;;;;;;14.10;10.93;;;18.20;88.20;;;;;;5010597;28;20042;-71
2021/07/26 01:23:59;;;;;;;13.40;11.77;;;18.20;88.20;;;;;;5013742;28;20030;-72
2021/07/26 01:26:26;;;;;;;12.48;10.52;;;18.10;88.20;;;;;;5006053;28;20096;-71
2021/07/26 01:28:59;;;;;;;14.48;11.50;;;18.20;88.20;;;;;;5007072;28;20034;-73
2021/07/26 01:31:25;;;;;;;13.88;11.38;;;18.20;88.20;;;;;;5011514;28;20041;-71
2021/07/26 01:33:52;;;;;;;15.68;11.23;;;18.20;88.20;;;;;;5011234;28;20136;-73
2021/07/26 01:36:19;;;;;;;13.20;10.80;;;18.10;88.20;;;;;;5016403;28;20500;-72
2021/07/26 01:38:45;;;;;;;14.68;11.18;;;18.20;88.20;;;;;;5006370;28;20100;-74
2021/07/26 01:41:22;;;;;;;13.80;11.30;;;18.20;88.20;;;;;;5011044;28;20481;-73
2021/07/26 01:44:01;;;;;;;15.23;10.63;;;18.20;88.20;;;;;;5009056;28;20041;-71
2021/07/26 01:46:48;;;;;;;15.18;12.30;;;18.20;88.10;;;;;;5010250;28;20049;-73
2021/07/26 01:49:51;;;;;;;15.27;11.52;;;18.20;88.00;;;;;;5002807;28;20181;-71
2021/07/26 01:52:18;;;;;;;15.27;11.75;;;18.20;88.10;;;;;;5005648;28;20393;-72
2021/07/26 01:54:44;;;;;;;13.35;10.85;;;18.20;88.20;;;;;;5008681;28;20371;-75
2021/07/26 01:57:09;;;;;;;12.93;11.05;;;18.20;88.30;;;;;;5001335;28;20033;-72
2021/07/26 01:59:37;;;;;;;15.00;10.55;;;18.20;88.20;;;;;;5032307;28;20120;-74
2021/07/26 02:02:03;;;;;;;14.50;10.15;;;18.20;88.10;;;;;;5012837;28;20044;-72
2021/07/26 02:04:28;;;;;;;15.80;10.38;;;18.10;88.10;;;;;;5015609;28;20037;-73
2021/07/26 02:06:54;;;;;;;13.32;10.07;;;18.10;88.10;;;;;;5019075;28;20045;-71
2021/07/26 02:09:19;;;;;;;16.73;10.13;;;18.10;88.10;;;;;;5013284;28;20069;-74
2021/07/26 02:11:45;;;;;;;13.75;10.57;;;18.10;88.20;;;;;;5011212;28;20033;-73
2021/07/26 02:14:11;;;;;;;12.95;10.25;;;18.00;88.30;;;;;;5002807;28;20030;-74
2021/07/26 02:16:38;;;;;;;13.45;9.88;;;18.10;88.30;;;;;;5005743;28;20042;-72
2021/07/26 02:19:05;;;;;;;12.60;9.30;;;18.00;88.30;;;;;;5006703;28;20041;-72
2021/07/26 02:21:31;;;;;;;14.18;10.52;;;18.00;88.40;;;;;;5013299;28;20046;-74
2021/07/26 02:23:56;;;;;;;13.30;10.52;;;18.00;88.40;;;;;;5005358;28;20037;-72
2021/07/26 02:26:22;;;;;;;16.70;10.82;;;17.90;88.50;;;;;;5008127;28;20460;-73
2021/07/26 02:28:48;;;;;;;15.10;10.65;;;17.90;88.70;;;;;;5025534;28;20610;-76
2021/07/26 02:31:14;;;;;;;15.07;11.07;;;17.90;88.80;;;;;;5030081;28;20038;-72
2021/07/26 02:33:39;;;;;;;13.65;10.80;;;17.90;88.80;;;;;;5030653;28;20057;-73
2021/07/26 02:36:05;;;;;;;14.55;10.70;;;17.90;88.90;;;;;;5025888;28;20499;-72
2021/07/26 02:38:31;;;;;;;14.23;10.38;;;17.90;88.80;;;;;;5029543;28;20035;-72
2021/07/26 02:40:56;;;;;;;14.27;10.75;;;17.80;88.80;;;;;;5032707;28;20064;-78
2021/07/26 02:43:22;;;;;;;14.95;10.88;;;17.80;88.90;;;;;;5022486;28;20037;-72
2021/07/26 02:45:48;;;;;;;16.73;12.38;;;17.80;88.90;;;;;;5031851;28;20041;-73
2021/07/26 02:48:14;;;;;;;15.68;12.57;;;17.80;88.90;;;;;;5027467;28;20061;-72
2021/07/26 02:50:40;;;;;;;17.92;13.60;;;17.70;89.00;;;;;;5031780;28;20048;-72
2021/07/26 02:53:05;;;;;;;17.38;12.40;;;17.70;89.10;;;;;;5034132;28;20037;-75
2021/07/26 02:55:31;;;;;;;18.88;14.07;;;17.70;89.20;;;;;;5020579;28;20124;-73
2021/07/26 02:57:57;;;;;;;16.35;13.52;;;17.70;89.20;;;;;;5017455;28;20029;-72
2021/07/26 03:00:23;;;;;;;18.50;13.02;;;17.70;89.40;;;;;;5023726;28;20447;-73
2021/07/26 03:02:49;;;;;;;19.83;13.02;;;17.80;89.40;;;;;;5029530;28;20125;-72
2021/07/26 03:05:14;;;;;;;17.38;12.75;;;17.80;89.40;;;;;;5025242;28;20067;-71
2021/07/26 03:07:40;;;;;;;18.38;13.88;;;17.90;89.30;;;;;;5028821;28;20041;-74
2021/07/26 03:10:06;;;;;;;17.95;13.00;;;17.90;89.30;;;;;;5021006;28;20481;-78
2021/07/26 03:12:32;;;;;;;17.40;13.25;;;17.90;89.10;;;;;;5021786;28;20125;-71
2021/07/26 03:14:57;;;;;;;18.45;13.88;;;18.00;89.20;;;;;;5023750;28;20133;-72
2021/07/26 03:17:25;;;;;;;19.52;13.77;;;18.00;89.10;;;;;;5027222;28;20048;-72
2021/07/26 03:19:57;;;;;;;20.52;13.40;;;18.00;89.20;;;;;;5036121;28;20042;-72
2021/07/26 03:22:56;;;;;;;19.10;13.15;;;18.00;89.10;;;;;;5020415;28;20377;-73
2021/07/26 03:25:22;;;;;;;19.70;12.95;;;18.00;89.10;;;;;;5034333;28;20061;-72
2021/07/26 03:27:50;;;;;;;17.48;12.90;;;18.00;89.00;;;;;;5027011;28;20477;-72
2021/07/26 03:30:17;;;;;;;19.90;12.95;;;18.10;88.90;;;;;;5012760;28;20043;-73
2021/07/26 03:32:46;;;;;;;22.23;13.32;;;18.10;88.90;;;;;;5001662;28;20034;-72
2021/07/26 03:35:13;;;;;;;20.98;14.15;;;18.00;88.90;;;;;;5004643;28;20066;-74
2021/07/26 03:37:39;;;;;;;17.58;13.32;;;18.10;88.80;;;;;;4998589;28;20034;-72
2021/07/26 03:40:06;;;;;;;18.05;13.32;;;18.10;88.80;;;;;;4996438;28;20049;-72
2021/07/26 03:42:37;;;;;;;19.85;13.63;;;18.10;88.80;;;;;;4997749;28;20061;-74
2021/07/26 03:45:05;;;;;;;21.20;13.95;;;18.10;88.80;;;;;;5005906;28;20049;-75
2021/07/26 03:47:30;;;;;;;18.67;13.15;;;18.00;88.70;;;;;;4997154;28;20022;-72
2021/07/26 03:49:56;;;;;;;19.67;13.52;;;18.10;88.80;;;;;;4998245;28;20088;-73
2021/07/26 03:52:21;;;;;;;22.50;15.52;;;18.10;88.70;;;;;;4999192;28;20042;-73
2021/07/26 03:54:47;;;;;;;17.55;13.43;;;18.10;88.60;;;;;;5000719;28;20281;-72
2021/07/26 03:57:13;;;;;;;22.25;15.95;;;18.10;88.70;;;;;;4999175;28;20045;-77
2021/07/26 03:59:38;;;;;;;24.63;16.05;;;18.10;88.70;;;;;;5007309;28;20049;-72
2021/07/26 04:02:04;;;;;;;24.60;16.27;;;18.20;88.60;;;;;;4996594;28;20035;-73
2021/07/26 04:04:30;;;;;;;24.98;17.30;;;18.10;88.60;;;;;;5004299;28;20100;-74
2021/07/26 04:06:59;;;;;;;26.50;17.70;;;18.10;88.70;;;;;;5004112;28;20704;-72
2021/07/26 04:09:29;;;;;;;29.50;18.60;;;18.10;88.80;;;;;;5013262;28;20683;-73
2021/07/26 04:12:05;;;;;;;26.98;19.25;;;18.10;88.90;;;;;;5013044;28;20048;-73
2021/07/26 04:14:35;;;;;;;27.80;18.90;;;18.10;88.90;;;;;;5034473;28;20041;-73
2021/07/26 04:17:01;;;;;;;34.33;21.92;;;18.10;89.00;;;;;;5022824;28;20038;-72
2021/07/26 04:19:26;;;;;;;32.42;20.58;;;18.10;89.00;;;;;;5028942;28;20095;-75
2021/07/26 04:21:56;;;;;;;38.30;22.38;;;18.20;89.00;;;;;;5012805;28;20046;-73
2021/07/26 04:24:22;;;;;;;34.60;21.58;;;18.20;89.00;;;;;;5006597;28;20107;-73
2021/07/26 04:26:48;;;;;;;36.78;22.55;;;18.30;89.10;;;;;;5001337;28;20128;-75
2021/07/26 04:29:13;;;;;;;32.00;20.70;;;18.40;89.00;;;;;;5014142;28;20044;-73
2021/07/26 04:31:39;;;;;;;33.28;21.65;;;18.50;89.00;;;;;;5013627;28;20041;-73
2021/07/26 04:34:05;;;;;;;30.30;20.20;;;18.50;88.70;;;;;;5013299;28;20041;-73
2021/07/26 04:36:30;;;;;;;27.38;20.33;;;18.60;88.50;;;;;;5019108;28;20038;-72
2021/07/26 04:38:56;;;;;;;26.38;18.92;;;18.70;88.40;;;;;;5012931;28;20041;-77
2021/07/26 04:41:21;;;;;;;26.65;18.63;;;18.90;88.10;;;;;;5011251;28;20495;-73
2021/07/26 04:43:47;;;;;;;27.48;19.48;;;19.10;87.50;;;;;;5011542;28;20168;-74
2021/07/26 04:46:13;;;;;;;23.98;18.05;;;19.30;87.00;;;;;;5018725;28;20037;-72
2021/07/26 04:48:39;;;;;;;32.63;20.70;;;19.40;86.50;;;;;;5008817;28;20492;-76
2021/07/26 04:51:04;;;;;;;28.63;20.13;;;19.50;85.80;;;;;;5021837;28;20040;-76
2021/07/26 04:53:34;;;;;;;28.75;20.60;;;19.60;85.40;;;;;;5026482;28;20034;-73
2021/07/26 04:56:00;;;;;;;21.27;18.60;;;19.80;84.80;;;;;;5030406;28;20038;-73
2021/07/26 04:58:25;;;;;;;26.63;19.33;;;19.90;84.70;;;;;;5018502;28;20035;-73
2021/07/26 05:00:51;;;;;;;29.08;22.20;;;20.00;84.70;;;;;;5019813;28;20507;-74
2021/07/26 05:03:17;;;;;;;27.95;21.33;;;20.00;84.20;;;;;;5024811;28;20061;-74
2021/07/26 05:05:43;;;;;;;27.50;20.38;;;20.10;84.00;;;;;;5033313;28;20495;-73
2021/07/26 05:08:09;;;;;;;27.10;20.95;;;20.10;84.00;;;;;;5031499;28;20456;-79
2021/07/26 05:10:34;;;;;;;29.50;22.55;;;20.10;83.90;;;;;;5031446;28;20036;-73
2021/07/26 05:13:00;;;;;;;30.25;22.65;;;20.10;84.30;;;;;;5027285;28;20045;-73
2021/07/26 05:15:26;;;;;;;32.47;23.27;;;20.10;84.50;;;;;;5031120;28;20428;-73
2021/07/26 05:17:51;;;;;;;33.40;23.35;;;20.10;84.20;;;;;;5026729;28;20038;-74
2021/07/26 05:20:17;;;;;;;28.92;23.33;;;20.10;84.50;;;;;;5033343;28;20029;-74
2021/07/26 05:22:43;;;;;;;28.13;22.58;;;20.00;84.70;;;;;;5019983;28;20041;-72
2021/07/26 05:25:09;;;;;;;29.65;23.20;;;19.80;84.90;;;;;;5022790;28;20045;-74
2021/07/26 05:27:36;;;;;;;29.65;23.27;;;19.70;85.50;;;;;;5018859;28;20033;-75
2021/07/26 05:30:05;;;;;;;26.00;21.45;;;19.60;86.10;;;;;;5031853;28;20037;-74
2021/07/26 05:32:31;;;;;;;29.42;22.42;;;19.50;86.40;;;;;;5028287;28;20056;-72
2021/07/26 05:34:57;;;;;;;30.20;22.42;;;19.50;86.60;;;;;;5028910;28;20076;-73
2021/07/26 05:37:23;;;;;;;30.90;22.50;;;19.50;86.90;;;;;;5025606;28;20495;-78
2021/07/26 05:39:48;;;;;;;29.88;22.63;;;19.50;87.30;;;;;;5031333;28;20091;-72
2021/07/26 05:42:14;;;;;;;26.88;21.05;;;19.40;87.70;;;;;;5019776;28;20065;-75
2021/07/26 05:44:41;;;;;;;28.38;21.20;;;19.40;87.80;;;;;;5025047;28;20109;-73
2021/07/26 05:47:10;;;;;;;27.48;21.02;;;19.30;88.10;;;;;;5026559;28;20033;-76
2021/07/26 05:49:37;;;;;;;25.52;21.33;;;19.30;88.10;;;;;;5027291;28;20477;-73
2021/07/26 05:52:03;;;;;;;31.77;23.35;;;19.30;88.30;;;;;;5026219;28;20504;-75
2021/07/26 05:54:28;;;;;;;26.10;21.98;;;19.30;88.20;;;;;;5029429;28;20034;-75
2021/07/26 05:56:54;;;;;;;26.52;20.85;;;19.20;88.20;;;;;;5028545;28;20060;-73
2021/07/26 05:59:21;;;;;;;26.45;20.08;;;19.20;88.50;;;;;;5021901;28;20335;-72
2021/07/26 06:01:47;;;;;;;25.75;20.73;;;19.30;88.70;;;;;;5031067;28;20047;-73
2021/07/26 06:04:17;;;;;;;27.50;19.98;;;19.30;88.80;;;;;;5019674;28;20033;-73
2021/07/26 06:06:48;;;;;;;27.52;20.13;;;19.30;88.90;;;;;;5023528;28;20104;-73
2021/07/26 06:09:14;;;;;;;27.08;21.17;;;19.40;89.10;;;;;;5027201;28;20034;-73
2021/07/26 06:11:41;;;;;;;27.65;21.30;;;19.50;89.10;;;;;;5028388;28;20026;-72
2021/07/26 06:14:07;;;;;;;23.65;19.70;;;19.50;89.20;;;;;;5033436;28;20085;-73
2021/07/26 06:16:33;;;;;;;26.73;20.85;;;19.60;89.20;;;;;;5025694;28;20464;-75
2021/07/26 06:19:00;;;;;;;32.67;23.92;;;19.60;89.00;;;;;;5017244;28;20075;-73
2021/07/26 06:21:26;;;;;;;26.00;23.25;;;19.60;88.60;;;;;;5016814;28;20497;-76
2021/07/26 06:23:51;;;;;;;28.92;23.77;;;19.70;88.90;;;;;;5024610;28;20045;-73
2021/07/26 06:26:17;;;;;;;31.40;25.30;;;19.80;88.60;;;;;;5018919;28;20034;-74
2021/07/26 06:28:43;;;;;;;29.50;25.80;;;19.80;88.60;;;;;;5028338;28;20038;-72
2021/07/26 06:31:10;;;;;;;28.30;25.30;;;20.00;88.70;;;;;;5034373;28;20373;-74
2021/07/26 06:33:36;;;;;;;32.70;26.38;;;19.90;88.40;;;;;;5015172;28;20034;-73
2021/07/26 06:36:04;;;;;;;28.10;25.10;;;19.80;87.80;;;;;;5023801;28;20481;-73
2021/07/26 06:38:30;;;;;;;27.88;24.90;;;19.70;88.10;;;;;;5026857;28;20032;-72
2021/07/26 06:40:56;;;;;;;30.77;25.48;;;19.70;88.10;;;;;;5014946;28;20040;-72
2021/07/26 06:43:23;;;;;;;27.85;24.95;;;19.60;87.90;;;;;;5019588;28;20159;-72
2021/07/26 06:45:48;;;;;;;28.73;25.70;;;19.60;88.20;;;;;;5023202;28;20105;-72
2021/07/26 06:48:14;;;;;;;28.30;24.60;;;19.70;88.00;;;;;;5029577;28;20124;-75
2021/07/26 06:50:39;;;;;;;30.90;27.60;;;19.60;87.90;;;;;;5028353;28;20084;-71
2021/07/26 06:53:08;;;;;;;31.80;28.50;;;19.60;88.00;;;;;;5024662;28;20030;-72
2021/07/26 06:55:37;;;;;;;33.42;29.30;;;19.70;88.00;;;;;;5028924;28;20057;-72
2021/07/26 06:58:04;;;;;;;32.10;28.70;;;19.70;87.80;;;;;;5025017;28;20030;-72
2021/07/26 07:00:30;;;;;;;34.92;31.23;;;19.70;87.70;;;;;;5029509;28;20026;-72
2021/07/26 07:02:56;;;;;;;36.67;31.88;;;19.70;87.30;;;;;;5027124;28;20040;-72
2021/07/26 07:05:22;;;;;;;31.05;27.83;;;19.80;87.60;;;;;;5032492;28;20049;-70
2021/07/26 07:07:47;;;;;;;31.60;28.20;;;19.90;87.30;;;;;;5020402;28;20038;-73
2021/07/26 07:10:13;;;;;;;30.33;27.27;;;19.80;86.80;;;;;;5001730;28;20045;-76
2021/07/26 07:12:39;;;;;;;28.55;25.52;;;19.90;87.10;;;;;;5008287;28;20084;-71
2021/07/26 07:15:05;;;;;;;23.00;20.70;;;19.90;87.00;;;;;;5008415;28;20042;-71
2021/07/26 07:17:30;;;;;;;22.83;20.50;;;20.10;86.90;;;;;;5010558;28;20102;-71
2021/07/26 07:19:56;;;;;;;22.70;20.42;;;20.20;86.00;;;;;;5003193;28;20427;-71
2021/07/26 07:22:22;;;;;;;21.85;19.65;;;20.20;85.80;;;;;;5004537;28;20509;-71
2021/07/26 07:24:48;;;;;;;23.05;20.55;;;20.10;85.70;;;;;;5010009;28;20053;-71
2021/07/26 07:27:14;;;;;;;24.45;21.30;;;20.20;85.20;;;;;;5002683;28;20045;-71
2021/07/26 07:29:39;;;;;;;26.33;23.63;;;20.20;85.30;;;;;;5006197;28;20037;-72
2021/07/26 07:32:06;;;;;;;28.23;23.35;;;20.40;84.90;;;;;;5005020;28;20042;-73
2021/07/26 07:34:31;;;;;;;25.08;22.48;;;20.90;84.90;;;;;;5004655;28;20478;-71
2021/07/26 07:36:58;;;;;;;26.10;23.30;;;21.10;83.30;;;;;;5011064;28;20039;-72
2021/07/26 07:39:28;;;;;;;23.95;21.40;;;21.40;82.60;;;;;;5016152;28;20041;-71
2021/07/26 07:41:54;;;;;;;25.75;23.05;;;21.80;81.30;;;;;;5009910;28;20389;-71
2021/07/26 07:44:20;;;;;;;25.23;22.10;;;21.90;80.10;;;;;;5001554;28;20034;-71
2021/07/26 07:46:46;;;;;;;25.40;22.63;;;21.80;80.20;;;;;;5014161;28;20034;-71
2021/07/26 07:49:11;;;;;;;25.58;22.65;;;21.80;80.20;;;;;;5004753;28;20125;-71
2021/07/26 07:51:37;;;;;;;25.40;22.30;;;21.80;80.00;;;;;;5009231;28;20034;-72
2021/07/26 07:54:03;;;;;;;22.95;20.45;;;22.00;80.10;;;;;;5007357;28;20109;-71
2021/07/26 07:56:29;;;;;;;23.40;19.92;;;22.00;79.50;;;;;;5012724;28;20118;-71
2021/07/26 07:58:59;;;;;;;16.77;13.88;;;22.00;79.50;;;;;;5010195;28;20037;-70
2021/07/26 08:01:31;;;;;;;16.13;13.30;;;22.00;78.40;;;;;;5004900;28;20149;-70
2021/07/26 08:03:57;;;;;;;16.67;13.68;;;21.70;79.00;;;;;;5008904;28;20112;-70
2021/07/26 08:06:22;;;;;;;15.95;13.10;;;21.70;79.90;;;;;;5004043;28;20125;-71
2021/07/26 08:08:48;;;;;;;19.83;14.75;;;21.60;80.50;;;;;;5007341;28;20046;-73
2021/07/26 08:11:14;;;;;;;19.02;14.38;;;21.60;80.60;;;;;;5012076;28;20041;-70
2021/07/26 08:13:39;;;;;;;21.60;16.15;;;21.70;81.10;;;;;;5016465;28;20133;-71
2021/07/26 08:16:06;;;;;;;26.45;19.90;;;21.80;81.50;;;;;;5014237;28;20132;-70
2021/07/26 08:18:32;;;;;;;27.08;21.42;;;21.90;80.50;;;;;;5006847;28;20046;-70
2021/07/26 08:20:58;;;;;;;30.95;24.52;;;21.80;81.60;;;;;;5012765;28;20504;-71
2021/07/26 08:23:23;;;;;;;29.63;23.58;;;21.90;80.60;;;;;;5010647;28;20030;-71
2021/07/26 08:25:49;;;;;;;32.95;24.90;;;22.00;80.40;;;;;;5012099;28;20034;-70
2021/07/26 08:28:15;;;;;;;32.42;25.48;;;22.10;80.20;;;;;;5011205;28;20105;-72
2021/07/26 08:30:41;;;;;;;35.03;27.02;;;22.10;80.00;;;;;;5009394;28;20029;-70
2021/07/26 08:33:08;;;;;;;36.00;27.35;;;22.30;78.90;;;;;;5011620;28;20030;-71
2021/07/26 08:35:35;;;;;;;35.08;26.70;;;22.20;78.90;;;;;;5008627;28;20065;-71
2021/07/26 08:38:01;;;;;;;35.45;27.33;;;22.30;79.20;;;;;;5016186;28;20030;-71
2021/07/26 08:40:28;;;;;;;31.80;26.05;;;22.60;79.10;;;;;;5009763;28;20054;-72
2021/07/26 08:42:55;;;;;;;33.72;27.00;;;23.10;77.90;;;;;;5005079;28;20161;-71
2021/07/26 08:45:21;;;;;;;28.67;24.00;;;23.60;76.20;;;;;;5011656;28;20060;-72
2021/07/26 08:47:47;;;;;;;30.05;23.33;;;23.50;73.50;;;;;;5013695;28;20042;-72
2021/07/26 08:50:22;;;;;;;29.02;23.50;;;24.00;73.00;;;;;;5013836;28;20057;-70
2021/07/26 08:52:49;;;;;;;25.65;21.73;;;23.90;72.60;;;;;;5014446;28;20044;-74
2021/07/26 08:55:17;;;;;;;28.80;23.42;;;23.50;74.20;;;;;;5010865;28;20050;-73
2021/07/26 08:57:45;;;;;;;31.02;23.65;;;23.20;74.60;;;;;;5010593;28;20046;-74
2021/07/26 09:00:12;;;;;;;31.05;24.92;;;22.80;75.50;;;;;;5015445;28;20037;-70
2021/07/26 09:02:38;;;;;;;36.55;27.95;;;22.60;76.80;;;;;;5014879;28;20033;-71
2021/07/26 09:05:06;;;;;;;40.83;31.42;;;22.40;78.90;;;;;;5017082;28;20041;-71
2021/07/26 09:07:35;;;;;;;41.13;32.65;;;22.20;79.60;;;;;;5014531;28;20108;-71
2021/07/26 09:10:13;;;;;;;40.17;31.63;;;22.20;79.60;;;;;;5019846;28;20042;-71
2021/07/26 09:12:40;;;;;;;43.00;33.25;;;22.10;79.30;;;;;;5011434;28;20389;-71
2021/07/26 09:15:28;;;;;;;41.88;33.78;;;22.20;79.80;;;;;;5012402;28;20129;-73
2021/07/26 09:17:55;;;;;;;34.97;28.65;;;22.10;79.90;;;;;;5015284;28;20033;-70
2021/07/26 09:20:25;;;;;;;22.75;19.23;;;21.70;79.70;;;;;;5022112;28;20060;-71
2021/07/26 09:22:51;;;;;;;22.17;19.02;;;21.10;80.10;;;;;;5017122;28;20052;-70
2021/07/26 09:25:24;;;;;;;22.55;17.40;;;20.90;81.20;;;;;;5011254;28;20042;-71
2021/07/26 09:27:57;;;;;;;27.25;19.58;;;20.70;82.10;;;;;;5009755;28;20448;-72
2021/07/26 09:30:23;;;;;;;29.27;22.43;;;20.50;82.10;;;;;;5006474;28;20034;-71
2021/07/26 09:32:49;;;;;;;29.75;22.33;;;20.30;83.30;;;;;;5012836;28;20041;-70
2021/07/26 09:35:15;;;;;;;25.48;19.88;;;20.20;84.30;;;;;;5011431;28;20065;-71
2021/07/26 09:37:41;;;;;;;28.08;21.77;;;20.20;85.10;;;;;;5015251;28;20441;-71
2021/07/26 09:40:23;;;;;;;34.78;26.30;;;20.10;85.30;;;;;;5009299;28;20038;-71
2021/07/26 09:42:50;;;;;;;30.67;24.42;;;20.10;85.50;;;;;;5010914;28;20042;-71
2021/07/26 09:45:26;;;;;;;44.28;32.22;;;20.10;85.30;;;;;;5009581;28;20042;-70
2021/07/26 09:48:03;;;;;;;21.48;13.07;;;20.00;85.40;;;;;;5008585;28;20083;-72
2021/07/26 09:50:40;;;;;;;23.63;17.90;;;19.60;85.20;;;;;;5008029;28;20132;-71
2021/07/26 09:53:17;;;;;;;43.38;33.70;;;19.60;84.80;;;;;;5001680;28;20073;-71
2021/07/26 09:55:49;;;;;;;27.40;20.55;;;19.40;85.60;;;;;;5007024;28;20788;-74
2021/07/26 09:58:16;;;;;;;19.48;13.95;;;19.20;85.30;;;;;;4999936;28;20030;-71
2021/07/26 10:00:43;;;;;;;21.98;14.45;;;18.70;85.20;;;;;;4998257;28;20041;-70
2021/07/26 10:03:11;;;;;;;21.40;16.90;;;18.40;87.10;;;;;;5011791;28;20080;-71
2021/07/26 10:05:39;;;;;;;25.55;19.33;;;18.40;87.50;;;;;;5004523;28;20049;-71
2021/07/26 10:08:06;;;;;;;27.60;21.15;;;18.50;87.90;;;;;;5011317;28;20026;-71
2021/07/26 10:10:33;;;;;;;25.27;19.17;;;18.50;88.00;;;;;;5011746;28;20033;-72
2021/07/26 10:13:00;;;;;;;22.80;18.40;;;18.60;88.40;;;;;;4997741;28;20092;-70
2021/07/26 10:15:27;;;;;;;23.25;18.80;;;18.60;88.70;;;;;;5008157;28;20063;-71
2021/07/26 10:17:54;;;;;;;25.98;19.90;;;18.80;88.70;;;;;;5000890;28;20051;-72
2021/07/26 10:20:22;;;;;;;30.45;23.10;;;18.90;88.50;;;;;;5007037;28;20042;-70
2021/07/26 10:23:13;;;;;;;25.85;20.88;;;19.00;88.80;;;;;;5004447;28;20042;-71
2021/07/26 10:25:54;;;;;;;23.98;19.58;;;19.00;88.60;;;;;;5003345;28;20058;-71
2021/07/26 10:28:25;;;;;;;19.92;16.80;;;19.10;88.30;;;;;;4994413;28;20822;-70
2021/07/26 10:30:51;;;;;;;19.67;17.40;;;19.10;88.30;;;;;;4998703;28;20165;-71
2021/07/26 10:33:16;;;;;;;19.35;16.88;;;19.10;87.90;;;;;;5002411;28;20128;-70
2021/07/26 10:35:53;;;;;;;18.27;15.80;;;19.10;87.80;;;;;;5011347;28;20546;-70
2021/07/26 10:38:46;;;;;;;15.85;13.27;;;19.20;87.80;;;;;;5009901;28;20369;-72
2021/07/26 10:41:44;;;;;;;20.27;15.65;;;19.20;87.70;;;;;;5006823;28;20030;-72
2021/07/26 10:44:10;;;;;;;18.40;15.43;;;19.30;87.90;;;;;;5008481;28;20037;-72
2021/07/26 10:46:51;;;;;;;17.05;14.55;;;19.40;87.50;;;;;;5006166;28;20090;-74
2021/07/26 10:49:17;;;;;;;19.02;15.75;;;19.50;87.60;;;;;;5007024;28;20038;-75
2021/07/26 10:51:45;;;;;;;18.95;15.45;;;19.50;87.10;;;;;;5013192;28;20034;-71
2021/07/26 10:54:34;;;;;;;19.05;14.57;;;19.50;87.30;;;;;;5011304;28;20041;-75
2021/07/26 10:57:03;;;;;;;15.98;14.30;;;19.60;87.30;;;;;;5005319;28;20049;-72
2021/07/26 10:59:30;;;;;;;16.65;13.35;;;19.70;86.90;;;;;;5004789;28;20057;-70
2021/07/26 11:02:00;;;;;;;17.13;14.73;;;19.70;86.40;;;;;;5004604;28;20300;-72
2021/07/26 11:04:30;;;;;;;15.32;13.52;;;19.90;86.20;;;;;;5015365;28;20030;-71
2021/07/26 11:06:56;;;;;;;16.10;14.40;;;20.00;86.30;;;;;;5000547;28;20499;-70
2021/07/26 11:09:21;;;;;;;16.92;14.73;;;20.10;86.20;;;;;;5004760;28;20057;-71
2021/07/26 11:11:50;;;;;;;19.50;17.23;;;20.10;85.90;;;;;;5008551;28;20377;-70
2021/07/26 11:14:16;;;;;;;20.20;18.20;;;20.20;85.80;;;;;;5008260;28;20042;-70
2021/07/26 11:16:50;;;;;;;19.23;17.08;;;20.40;85.60;;;;;;5011382;28;20049;-70
2021/07/26 11:20:15;;;;;;;19.63;17.58;;;20.60;85.70;;;;;;5013845;28;20500;-72
2021/07/26 11:22:37;;;;;;;22.55;20.33;;;20.70;85.20;;;;;;5025947;28;20057;-70
2021/07/26 11:25:08;;;;;;;23.88;21.48;;;20.80;83.90;;;;;;5033023;28;20539;-71
2021/07/26 11:27:33;;;;;;;23.95;21.65;;;21.00;84.30;;;;;;5030251;28;20029;-75
2021/07/26 11:29:59;;;;;;;26.35;22.58;;;21.10;84.30;;;;;;5029225;28;20045;-72
2021/07/26 11:32:27;;;;;;;24.70;22.27;;;21.20;83.50;;;;;;5033561;28;20444;-71
2021/07/26 11:34:53;;;;;;;26.70;23.98;;;21.30;82.90;;;;;;5038788;28;20040;-71
2021/07/26 11:37:20;;;;;;;27.88;24.98;;;21.30;83.10;;;;;;5033052;28;20125;-71
2021/07/26 11:39:49;;;;;;;28.63;25.80;;;21.30;82.50;;;;;;5038135;28;20392;-73
2021/07/26 11:42:37;;;;;;;31.60;28.50;;;21.10;82.70;;;;;;5030574;28;20041;-71
2021/07/26 11:45:04;;;;;;;28.70;25.80;;;21.20;83.30;;;;;;5026778;28;20103;-70
2021/07/26 11:47:33;;;;;;;28.27;25.40;;;21.30;83.70;;;;;;5034753;28;20039;-72
2021/07/26 11:50:01;;;;;;;33.47;29.85;;;21.50;83.20;;;;;;5035817;28;20036;-74
2021/07/26 11:52:27;;;;;;;34.58;31.10;;;21.60;83.60;;;;;;5031907;28;20035;-72
2021/07/26 11:54:52;;;;;;;36.88;33.08;;;21.70;83.50;;;;;;5029392;28;20033;-71
2021/07/26 11:57:18;;;;;;;40.08;35.88;;;21.70;81.50;;;;;;5026322;28;20065;-71
2021/07/26 11:59:51;;;;;;;39.22;35.25;;;21.90;82.10;;;;;;5025616;28;20033;-72
2021/07/26 12:02:30;;;;;;;41.60;37.40;;;22.30;82.10;;;;;;5033842;28;20044;-71
2021/07/26 12:05:01;;;;;;;40.42;36.53;;;23.00;81.20;;;;;;5025733;28;20037;-71
2021/07/26 12:07:44;;;;;;;36.00;32.40;;;23.50;76.10;;;;;;5030015;28;20116;-71
2021/07/26 12:10:12;;;;;;;34.38;30.90;;;23.90;75.80;;;;;;5030707;28;20037;-73
2021/07/26 12:12:39;;;;;;;35.95;32.45;;;24.00;74.80;;;;;;5031597;28;20128;-71
2021/07/26 12:15:24;;;;;;;33.78;30.48;;;23.80;73.10;;;;;;5032684;28;20037;-71
2021/07/26 12:18:09;;;;;;;31.40;28.45;;;23.80;74.20;;;;;;5034066;28;20038;-71
2021/07/26 12:20:43;;;;;;;34.33;30.95;;;23.80;72.90;;;;;;5030950;28;20037;-70
2021/07/26 12:23:11;;;;;;;32.60;29.40;;;24.00;75.00;;;;;;5028787;28;20025;-71
2021/07/26 12:25:45;;;;;;;32.03;28.83;;;24.30;72.30;;;;;;5036360;28;20107;-71
2021/07/26 12:28:11;;;;;;;29.30;26.48;;;24.50;73.50;;;;;;5029124;28;20472;-71
2021/07/26 12:30:38;;;;;;;30.02;27.23;;;24.60;72.00;;;;;;5026959;28;20029;-71
2021/07/26 12:33:05;;;;;;;30.50;27.60;;;24.60;71.20;;;;;;5032161;28;20033;-71